sensor_id;sensor_type;location;lat;lon;timestamp;temperature;humidity
30174;DHT22;16985;50.814;8.530;2023-04-24T00:00:07;10.40;99.90
30174;DHT22;16985;50.814;8.530;2023-04-24T00:02:37;10.40;99.90
30174;DHT22;16985;50.814;8.530;2023-04-24T00:05:07;10.50;99.90
30174;DHT22;16985;50.814;8.530;2023-04-24T00:07:46;10.40;99.90
30174;DHT22;16985;50.814;8.530;2023-04-24T00:10:13;10.50;99.90
30174;DHT22;16985;50.814;8.530;2023-04-24T00:12:39;10.50;99.90
30174;DHT22;16985;50.814;8.530;2023-04-24T00:15:05;10.50;99.90
30174;DHT22;16985;50.814;8.530;2023-04-24T00:17:31;10.50;99.90
30174;DHT22;16985;50.814;8.530;2023-04-24T00:19:57;10.50;99.90
30174;DHT22;16985;50.814;8.530;2023-04-24T00:22:28;10.50;99.90
30174;DHT22;16985;50.814;8.530;2023-04-24T00:25:06;10.50;99.90
30174;DHT22;16985;50.814;8.530;2023-04-24T00:27:32;10.50;99.90
30174;DHT22;16985;50.814;8.530;2023-04-24T00:29:58;10.50;99.90
30174;DHT22;16985;50.814;8.530;2023-04-24T00:32:24;10.50;99.90
30174;DHT22;16985;50.814;8.530;2023-04-24T00:34:49;10.50;99.90
30174;DHT22;16985;50.814;8.530;2023-04-24T00:37:15;10.50;99.90
30174;DHT22;16985;50.814;8.530;2023-04-24T00:39:43;10.50;99.90
30174;DHT22;16985;50.814;8.530;2023-04-24T00:42:09;10.60;99.90
30174;DHT22;16985;50.814;8.530;2023-04-24T00:44:35;10.50;99.90
30174;DHT22;16985;50.814;8.530;2023-04-24T00:47:01;10.50;99.90
30174;DHT22;16985;50.814;8.530;2023-04-24T00:49:27;10.50;99.90
30174;DHT22;16985;50.814;8.530;2023-04-24T00:51:53;10.50;99.90
30174;DHT22;16985;50.814;8.530;2023-04-24T00:54:19;10.50;99.90
30174;DHT22;16985;50.814;8.530;2023-04-24T00:56:46;10.50;99.90
30174;DHT22;16985;50.814;8.530;2023-04-24T00:59:20;10.50;99.90
30174;DHT22;16985;50.814;8.530;2023-04-24T01:01:46;10.50;99.90
30174;DHT22;16985;50.814;8.530;2023-04-24T01:04:12;10.50;99.90
30174;DHT22;16985;50.814;8.530;2023-04-24T01:06:39;10.50;99.90
30174;DHT22;16985;50.814;8.530;2023-04-24T01:09:06;10.50;99.90
30174;DHT22;16985;50.814;8.530;2023-04-24T01:11:33;10.50;99.90
30174;DHT22;16985;50.814;8.530;2023-04-24T01:13:59;10.50;99.90
30174;DHT22;16985;50.814;8.530;2023-04-24T01:16:25;10.50;99.90
30174;DHT22;16985;50.814;8.530;2023-04-24T01:19:08;10.50;99.90
30174;DHT22;16985;50.814;8.530;2023-04-24T01:21:37;10.50;99.90
30174;DHT22;16985;50.814;8.530;2023-04-24T01:24:04;10.50;99.90
30174;DHT22;16985;50.814;8.530;2023-04-24T01:26:30;10.50;99.90
30174;DHT22;16985;50.814;8.530;2023-04-24T01:28:56;10.50;99.90
30174;DHT22;16985;50.814;8.530;2023-04-24T01:31:22;10.50;99.90
30174;DHT22;16985;50.814;8.530;2023-04-24T01:33:49;10.50;99.90
30174;DHT22;16985;50.814;8.530;2023-04-24T01:36:16;10.50;99.90
30174;DHT22;16985;50.814;8.530;2023-04-24T01:38:43;10.50;99.90
30174;DHT22;16985;50.814;8.530;2023-04-24T01:41:09;10.40;99.90
30174;DHT22;16985;50.814;8.530;2023-04-24T01:43:35;10.40;99.90
30174;DHT22;16985;50.814;8.530;2023-04-24T01:46:01;10.40;99.90
30174;DHT22;16985;50.814;8.530;2023-04-24T01:48:28;10.40;99.90
30174;DHT22;16985;50.814;8.530;2023-04-24T01:50:54;10.40;99.90
30174;DHT22;16985;50.814;8.530;2023-04-24T01:53:20;10.40;99.90
30174;DHT22;16985;50.814;8.530;2023-04-24T01:55:45;10.40;99.90
30174;DHT22;16985;50.814;8.530;2023-04-24T01:58:12;10.40;99.90
30174;DHT22;16985;50.814;8.530;2023-04-24T02:00:38;10.40;99.90
30174;DHT22;16985;50.814;8.530;2023-04-24T02:03:04;10.40;99.90
30174;DHT22;16985;50.814;8.530;2023-04-24T02:05:29;10.30;99.90
30174;DHT22;16985;50.814;8.530;2023-04-24T02:07:55;10.40;99.90
30174;DHT22;16985;50.814;8.530;2023-04-24T02:10:21;10.40;99.90
30174;DHT22;16985;50.814;8.530;2023-04-24T02:12:47;10.30;99.90
30174;DHT22;16985;50.814;8.530;2023-04-24T02:15:14;10.40;99.90
30174;DHT22;16985;50.814;8.530;2023-04-24T02:17:40;10.40;99.90
30174;DHT22;16985;50.814;8.530;2023-04-24T02:20:09;10.40;99.90
30174;DHT22;16985;50.814;8.530;2023-04-24T02:22:37;10.40;99.90
30174;DHT22;16985;50.814;8.530;2023-04-24T02:25:03;10.40;99.90
30174;DHT22;16985;50.814;8.530;2023-04-24T02:27:29;10.40;99.90
30174;DHT22;16985;50.814;8.530;2023-04-24T02:29:56;10.40;99.90
30174;DHT22;16985;50.814;8.530;2023-04-24T02:32:22;10.40;99.90
30174;DHT22;16985;50.814;8.530;2023-04-24T02:34:47;10.40;99.90
30174;DHT22;16985;50.814;8.530;2023-04-24T02:37:13;10.40;99.90
30174;DHT22;16985;50.814;8.530;2023-04-24T02:39:39;10.40;99.90
30174;DHT22;16985;50.814;8.530;2023-04-24T02:42:05;10.30;99.90
30174;DHT22;16985;50.814;8.530;2023-04-24T02:44:30;10.40;99.90
30174;DHT22;16985;50.814;8.530;2023-04-24T02:46:56;10.30;99.90
30174;DHT22;16985;50.814;8.530;2023-04-24T02:49:22;10.30;99.90
30174;DHT22;16985;50.814;8.530;2023-04-24T02:51:48;10.40;99.90
30174;DHT22;16985;50.814;8.530;2023-04-24T02:54:14;10.30;99.90
30174;DHT22;16985;50.814;8.530;2023-04-24T02:56:39;10.00;99.90
30174;DHT22;16985;50.814;8.530;2023-04-24T02:59:07;10.30;99.90
30174;DHT22;16985;50.814;8.530;2023-04-24T03:01:33;10.30;99.90
30174;DHT22;16985;50.814;8.530;2023-04-24T03:03:59;10.30;99.90
30174;DHT22;16985;50.814;8.530;2023-04-24T03:06:25;10.30;99.90
30174;DHT22;16985;50.814;8.530;2023-04-24T03:08:52;10.30;99.90
30174;DHT22;16985;50.814;8.530;2023-04-24T03:11:18;10.30;99.90
30174;DHT22;16985;50.814;8.530;2023-04-24T03:13:44;10.30;99.90
30174;DHT22;16985;50.814;8.530;2023-04-24T03:16:10;10.30;99.90
30174;DHT22;16985;50.814;8.530;2023-04-24T03:18:36;10.30;99.90
30174;DHT22;16985;50.814;8.530;2023-04-24T03:21:03;10.30;99.90
30174;DHT22;16985;50.814;8.530;2023-04-24T03:23:29;10.30;99.90
30174;DHT22;16985;50.814;8.530;2023-04-24T03:25:55;10.30;99.90
30174;DHT22;16985;50.814;8.530;2023-04-24T03:28:21;10.30;99.90
30174;DHT22;16985;50.814;8.530;2023-04-24T03:30:53;10.30;99.90
30174;DHT22;16985;50.814;8.530;2023-04-24T03:33:21;10.20;99.90
30174;DHT22;16985;50.814;8.530;2023-04-24T03:35:56;10.20;99.90
30174;DHT22;16985;50.814;8.530;2023-04-24T03:38:22;10.20;99.90
30174;DHT22;16985;50.814;8.530;2023-04-24T03:40:55;10.20;99.90
30174;DHT22;16985;50.814;8.530;2023-04-24T03:43:34;10.20;99.90
30174;DHT22;16985;50.814;8.530;2023-04-24T03:46:01;10.10;99.90
30174;DHT22;16985;50.814;8.530;2023-04-24T03:48:28;10.10;99.90
30174;DHT22;16985;50.814;8.530;2023-04-24T03:50:54;10.10;99.90
30174;DHT22;16985;50.814;8.530;2023-04-24T03:53:27;10.10;99.90
30174;DHT22;16985;50.814;8.530;2023-04-24T03:55:54;10.10;99.90
30174;DHT22;16985;50.814;8.530;2023-04-24T03:58:20;10.10;99.90
30174;DHT22;16985;50.814;8.530;2023-04-24T04:00:46;10.10;99.90
30174;DHT22;16985;50.814;8.530;2023-04-24T04:03:36;10.00;99.90
30174;DHT22;16985;50.814;8.530;2023-04-24T04:06:01;10.00;99.90
30174;DHT22;16985;50.814;8.530;2023-04-24T04:08:27;10.00;99.90
30174;DHT22;16985;50.814;8.530;2023-04-24T04:10:53;10.00;99.90
30174;DHT22;16985;50.814;8.530;2023-04-24T04:13:19;10.00;99.90
30174;DHT22;16985;50.814;8.530;2023-04-24T04:15:45;10.00;99.90
30174;DHT22;16985;50.814;8.530;2023-04-24T04:18:11;9.90;99.90
30174;DHT22;16985;50.814;8.530;2023-04-24T04:20:37;9.90;99.90
30174;DHT22;16985;50.814;8.530;2023-04-24T04:23:03;9.90;99.90
30174;DHT22;16985;50.814;8.530;2023-04-24T04:25:41;9.80;99.90
30174;DHT22;16985;50.814;8.530;2023-04-24T04:28:07;9.80;99.90
30174;DHT22;16985;50.814;8.530;2023-04-24T04:30:33;9.80;99.90
30174;DHT22;16985;50.814;8.530;2023-04-24T04:33:05;9.70;99.90
30174;DHT22;16985;50.814;8.530;2023-04-24T04:35:32;9.70;99.90
30174;DHT22;16985;50.814;8.530;2023-04-24T04:37:59;9.60;99.90
30174;DHT22;16985;50.814;8.530;2023-04-24T04:40:40;9.60;99.90
30174;DHT22;16985;50.814;8.530;2023-04-24T04:43:06;9.50;99.90
30174;DHT22;16985;50.814;8.530;2023-04-24T04:45:40;9.50;99.90
30174;DHT22;16985;50.814;8.530;2023-04-24T04:48:40;9.40;99.90
30174;DHT22;16985;50.814;8.530;2023-04-24T04:51:06;9.30;99.90
30174;DHT22;16985;50.814;8.530;2023-04-24T04:53:32;9.30;99.90
30174;DHT22;16985;50.814;8.530;2023-04-24T04:55:58;9.30;99.90
30174;DHT22;16985;50.814;8.530;2023-04-24T04:58:40;9.20;99.90
30174;DHT22;16985;50.814;8.530;2023-04-24T05:01:23;9.20;99.90
30174;DHT22;16985;50.814;8.530;2023-04-24T05:03:50;9.10;99.90
30174;DHT22;16985;50.814;8.530;2023-04-24T05:06:16;9.00;99.90
30174;DHT22;16985;50.814;8.530;2023-04-24T05:08:44;9.00;99.90
30174;DHT22;16985;50.814;8.530;2023-04-24T05:11:18;8.90;99.90
30174;DHT22;16985;50.814;8.530;2023-04-24T05:13:44;8.90;99.90
30174;DHT22;16985;50.814;8.530;2023-04-24T05:16:22;8.80;99.90
30174;DHT22;16985;50.814;8.530;2023-04-24T05:18:49;8.80;99.90
30174;DHT22;16985;50.814;8.530;2023-04-24T05:21:18;8.80;99.90
30174;DHT22;16985;50.814;8.530;2023-04-24T05:23:48;8.70;99.90
30174;DHT22;16985;50.814;8.530;2023-04-24T05:26:21;8.70;99.90
30174;DHT22;16985;50.814;8.530;2023-04-24T05:28:48;8.70;99.90
30174;DHT22;16985;50.814;8.530;2023-04-24T05:31:15;8.70;99.90
30174;DHT22;16985;50.814;8.530;2023-04-24T05:33:43;8.70;99.90
30174;DHT22;16985;50.814;8.530;2023-04-24T05:36:12;8.70;99.90
30174;DHT22;16985;50.814;8.530;2023-04-24T05:38:53;8.70;99.90
30174;DHT22;16985;50.814;8.530;2023-04-24T05:41:19;8.60;99.90
30174;DHT22;16985;50.814;8.530;2023-04-24T05:43:46;8.60;99.90
30174;DHT22;16985;50.814;8.530;2023-04-24T05:46:12;8.60;99.90
30174;DHT22;16985;50.814;8.530;2023-04-24T05:48:38;8.60;99.90
30174;DHT22;16985;50.814;8.530;2023-04-24T05:51:05;8.60;99.90
30174;DHT22;16985;50.814;8.530;2023-04-24T05:53:31;8.60;99.90
30174;DHT22;16985;50.814;8.530;2023-04-24T05:55:57;8.60;99.90
30174;DHT22;16985;50.814;8.530;2023-04-24T05:58:23;8.60;99.90
30174;DHT22;16985;50.814;8.530;2023-04-24T06:00:49;8.60;99.90
30174;DHT22;16985;50.814;8.530;2023-04-24T06:03:16;8.70;99.90
30174;DHT22;16985;50.814;8.530;2023-04-24T06:05:42;8.70;99.90
30174;DHT22;16985;50.814;8.530;2023-04-24T06:08:08;8.70;99.90
30174;DHT22;16985;50.814;8.530;2023-04-24T06:10:37;8.70;99.90
30174;DHT22;16985;50.814;8.530;2023-04-24T06:13:08;8.70;99.90
30174;DHT22;16985;50.814;8.530;2023-04-24T06:15:37;8.80;99.90
30174;DHT22;16985;50.814;8.530;2023-04-24T06:18:09;8.80;99.90
30174;DHT22;16985;50.814;8.530;2023-04-24T06:20:36;8.80;99.90
30174;DHT22;16985;50.814;8.530;2023-04-24T06:23:02;8.80;99.90
30174;DHT22;16985;50.814;8.530;2023-04-24T06:25:28;8.80;99.90
30174;DHT22;16985;50.814;8.530;2023-04-24T06:27:54;8.90;99.90
30174;DHT22;16985;50.814;8.530;2023-04-24T06:30:20;8.90;99.90
30174;DHT22;16985;50.814;8.530;2023-04-24T06:32:46;8.90;99.90
30174;DHT22;16985;50.814;8.530;2023-04-24T06:35:14;8.90;99.90
30174;DHT22;16985;50.814;8.530;2023-04-24T06:37:41;9.00;99.90
30174;DHT22;16985;50.814;8.530;2023-04-24T06:40:10;9.00;99.90
30174;DHT22;16985;50.814;8.530;2023-04-24T06:42:36;9.10;99.90
30174;DHT22;16985;50.814;8.530;2023-04-24T06:45:03;9.10;99.90
30174;DHT22;16985;50.814;8.530;2023-04-24T06:47:30;9.10;99.90
30174;DHT22;16985;50.814;8.530;2023-04-24T06:49:56;9.20;99.90
30174;DHT22;16985;50.814;8.530;2023-04-24T06:52:22;9.20;99.90
30174;DHT22;16985;50.814;8.530;2023-04-24T06:54:48;10.40;99.90
30174;DHT22;16985;50.814;8.530;2023-04-24T06:57:14;9.30;99.90
30174;DHT22;16985;50.814;8.530;2023-04-24T06:59:41;9.30;99.90
30174;DHT22;16985;50.814;8.530;2023-04-24T07:02:07;9.40;99.90
30174;DHT22;16985;50.814;8.530;2023-04-24T07:04:33;9.40;99.90
30174;DHT22;16985;50.814;8.530;2023-04-24T07:06:59;9.50;99.90
30174;DHT22;16985;50.814;8.530;2023-04-24T07:09:26;9.50;99.90
30174;DHT22;16985;50.814;8.530;2023-04-24T07:11:52;9.50;99.90
30174;DHT22;16985;50.814;8.530;2023-04-24T07:14:19;9.60;99.90
30174;DHT22;16985;50.814;8.530;2023-04-24T07:16:46;9.60;99.90
30174;DHT22;16985;50.814;8.530;2023-04-24T07:19:12;9.70;99.90
30174;DHT22;16985;50.814;8.530;2023-04-24T07:21:39;9.70;99.90
30174;DHT22;16985;50.814;8.530;2023-04-24T07:24:05;9.70;99.90
30174;DHT22;16985;50.814;8.530;2023-04-24T07:26:50;9.80;99.90
30174;DHT22;16985;50.814;8.530;2023-04-24T07:29:17;9.80;99.90
30174;DHT22;16985;50.814;8.530;2023-04-24T07:31:43;9.80;99.90
30174;DHT22;16985;50.814;8.530;2023-04-24T07:34:09;9.90;99.90
30174;DHT22;16985;50.814;8.530;2023-04-24T07:36:35;10.00;99.70
30174;DHT22;16985;50.814;8.530;2023-04-24T07:39:04;10.10;99.30
30174;DHT22;16985;50.814;8.530;2023-04-24T07:41:45;10.10;98.80
30174;DHT22;16985;50.814;8.530;2023-04-24T07:44:10;10.10;98.80
30174;DHT22;16985;50.814;8.530;2023-04-24T07:46:36;10.20;98.10
30174;DHT22;16985;50.814;8.530;2023-04-24T07:49:02;10.20;98.00
30174;DHT22;16985;50.814;8.530;2023-04-24T07:51:28;10.30;97.80
30174;DHT22;16985;50.814;8.530;2023-04-24T07:53:54;10.30;97.80
30174;DHT22;16985;50.814;8.530;2023-04-24T07:56:21;10.40;97.70
30174;DHT22;16985;50.814;8.530;2023-04-24T07:58:46;10.40;97.40
30174;DHT22;16985;50.814;8.530;2023-04-24T08:01:12;10.50;97.50
30174;DHT22;16985;50.814;8.530;2023-04-24T08:03:38;10.50;97.30
30174;DHT22;16985;50.814;8.530;2023-04-24T08:06:04;10.60;97.00
30174;DHT22;16985;50.814;8.530;2023-04-24T08:08:30;10.70;96.40
30174;DHT22;16985;50.814;8.530;2023-04-24T08:10:56;10.70;95.60
30174;DHT22;16985;50.814;8.530;2023-04-24T08:13:22;10.70;95.10
30174;DHT22;16985;50.814;8.530;2023-04-24T08:15:47;10.70;94.60
30174;DHT22;16985;50.814;8.530;2023-04-24T08:18:13;10.70;94.80
30174;DHT22;16985;50.814;8.530;2023-04-24T08:20:41;10.60;94.80
30174;DHT22;16985;50.814;8.530;2023-04-24T08:23:07;10.60;94.80
30174;DHT22;16985;50.814;8.530;2023-04-24T08:25:32;10.60;95.00
30174;DHT22;16985;50.814;8.530;2023-04-24T08:28:01;10.50;94.90
30174;DHT22;16985;50.814;8.530;2023-04-24T08:30:29;10.50;95.00
30174;DHT22;16985;50.814;8.530;2023-04-24T08:32:55;10.50;95.10
30174;DHT22;16985;50.814;8.530;2023-04-24T08:35:21;10.50;95.30
30174;DHT22;16985;50.814;8.530;2023-04-24T08:37:48;10.50;95.40
30174;DHT22;16985;50.814;8.530;2023-04-24T08:40:15;10.50;95.50
30174;DHT22;16985;50.814;8.530;2023-04-24T08:42:42;10.50;95.80
30174;DHT22;16985;50.814;8.530;2023-04-24T08:45:10;10.60;95.60
30174;DHT22;16985;50.814;8.530;2023-04-24T08:47:41;10.60;95.40
30174;DHT22;16985;50.814;8.530;2023-04-24T08:50:08;10.60;95.40
30174;DHT22;16985;50.814;8.530;2023-04-24T08:52:35;10.70;95.40
30174;DHT22;16985;50.814;8.530;2023-04-24T08:55:01;10.70;95.70
30174;DHT22;16985;50.814;8.530;2023-04-24T08:57:28;10.70;96.00
30174;DHT22;16985;50.814;8.530;2023-04-24T08:59:56;10.70;96.30
30174;DHT22;16985;50.814;8.530;2023-04-24T09:02:23;10.70;96.80
30174;DHT22;16985;50.814;8.530;2023-04-24T09:04:50;10.70;97.10
30174;DHT22;16985;50.814;8.530;2023-04-24T09:07:17;10.70;97.10
30174;DHT22;16985;50.814;8.530;2023-04-24T09:09:43;10.70;97.70
30174;DHT22;16985;50.814;8.530;2023-04-24T09:12:10;10.70;98.10
30174;DHT22;16985;50.814;8.530;2023-04-24T09:14:36;10.70;98.20
30174;DHT22;16985;50.814;8.530;2023-04-24T09:17:06;10.70;98.30
30174;DHT22;16985;50.814;8.530;2023-04-24T09:19:32;10.80;98.30
30174;DHT22;16985;50.814;8.530;2023-04-24T09:21:57;10.80;98.60
30174;DHT22;16985;50.814;8.530;2023-04-24T09:24:23;10.80;98.40
30174;DHT22;16985;50.814;8.530;2023-04-24T09:26:56;10.80;98.40
30174;DHT22;16985;50.814;8.530;2023-04-24T09:29:24;10.80;98.60
30174;DHT22;16985;50.814;8.530;2023-04-24T09:31:50;10.80;99.00
30174;DHT22;16985;50.814;8.530;2023-04-24T09:34:21;10.80;98.90
30174;DHT22;16985;50.814;8.530;2023-04-24T09:36:49;10.70;99.90
30174;DHT22;16985;50.814;8.530;2023-04-24T09:39:16;10.80;99.90
30174;DHT22;16985;50.814;8.530;2023-04-24T09:41:53;10.70;99.90
30174;DHT22;16985;50.814;8.530;2023-04-24T09:44:27;10.70;99.90
30174;DHT22;16985;50.814;8.530;2023-04-24T09:46:58;10.80;99.90
30174;DHT22;16985;50.814;8.530;2023-04-24T09:49:29;10.70;99.90
30174;DHT22;16985;50.814;8.530;2023-04-24T09:52:09;10.70;99.90
30174;DHT22;16985;50.814;8.530;2023-04-24T09:54:36;10.60;99.90
30174;DHT22;16985;50.814;8.530;2023-04-24T09:57:02;10.70;99.90
30174;DHT22;16985;50.814;8.530;2023-04-24T09:59:29;10.70;99.90
30174;DHT22;16985;50.814;8.530;2023-04-24T10:01:55;10.60;99.90
30174;DHT22;16985;50.814;8.530;2023-04-24T10:04:24;10.60;99.90
30174;DHT22;16985;50.814;8.530;2023-04-24T10:06:52;10.50;99.90
30174;DHT22;16985;50.814;8.530;2023-04-24T10:09:21;10.50;99.90
30174;DHT22;16985;50.814;8.530;2023-04-24T10:11:51;10.40;99.90
30174;DHT22;16985;50.814;8.530;2023-04-24T10:14:23;10.40;99.90
30174;DHT22;16985;50.814;8.530;2023-04-24T10:16:53;10.40;99.90
30174;DHT22;16985;50.814;8.530;2023-04-24T10:19:19;10.40;99.90
30174;DHT22;16985;50.814;8.530;2023-04-24T10:21:46;10.40;99.90
30174;DHT22;16985;50.814;8.530;2023-04-24T10:24:16;10.40;99.90
30174;DHT22;16985;50.814;8.530;2023-04-24T10:26:44;10.30;99.90
30174;DHT22;16985;50.814;8.530;2023-04-24T10:29:11;10.30;99.90
30174;DHT22;16985;50.814;8.530;2023-04-24T10:31:39;10.20;99.90
30174;DHT22;16985;50.814;8.530;2023-04-24T10:34:09;10.20;99.90
30174;DHT22;16985;50.814;8.530;2023-04-24T10:36:46;10.20;99.90
30174;DHT22;16985;50.814;8.530;2023-04-24T10:39:14;10.30;99.90
30174;DHT22;16985;50.814;8.530;2023-04-24T10:41:41;10.30;99.90
30174;DHT22;16985;50.814;8.530;2023-04-24T10:44:10;10.20;99.90
30174;DHT22;16985;50.814;8.530;2023-04-24T10:46:38;10.20;99.90
30174;DHT22;16985;50.814;8.530;2023-04-24T10:49:08;10.20;99.90
30174;DHT22;16985;50.814;8.530;2023-04-24T10:52:03;10.30;99.90
30174;DHT22;16985;50.814;8.530;2023-04-24T10:54:41;10.50;99.90
30174;DHT22;16985;50.814;8.530;2023-04-24T11:00:13;10.70;99.90
30174;DHT22;16985;50.814;8.530;2023-04-24T11:02:41;10.90;99.90
30174;DHT22;16985;50.814;8.530;2023-04-24T11:05:15;11.00;99.90
30174;DHT22;16985;50.814;8.530;2023-04-24T11:08:14;11.10;99.90
30174;DHT22;16985;50.814;8.530;2023-04-24T11:11:13;11.10;99.90
30174;DHT22;16985;50.814;8.530;2023-04-24T11:21:54;11.10;97.80
30174;DHT22;16985;50.814;8.530;2023-04-24T11:24:39;11.10;97.90
30174;DHT22;16985;50.814;8.530;2023-04-24T11:27:21;11.10;98.90
30174;DHT22;16985;50.814;8.530;2023-04-24T11:32:30;11.20;99.90
30174;DHT22;16985;50.814;8.530;2023-04-24T11:37:40;11.20;99.70
30174;DHT22;16985;50.814;8.530;2023-04-24T11:40:09;11.20;99.10
30174;DHT22;16985;50.814;8.530;2023-04-24T11:42:41;11.30;98.20
30174;DHT22;16985;50.814;8.530;2023-04-24T11:45:13;11.30;98.50
30174;DHT22;16985;50.814;8.530;2023-04-24T11:47:49;11.30;98.60
30174;DHT22;16985;50.814;8.530;2023-04-24T11:50:17;11.20;97.90
30174;DHT22;16985;50.814;8.530;2023-04-24T11:52:44;11.10;97.60
30174;DHT22;16985;50.814;8.530;2023-04-24T11:57:46;11.10;98.20
30174;DHT22;16985;50.814;8.530;2023-04-24T12:00:21;11.00;97.60
30174;DHT22;16985;50.814;8.530;2023-04-24T12:02:47;11.00;97.80
30174;DHT22;16985;50.814;8.530;2023-04-24T12:05:25;10.90;97.50
30174;DHT22;16985;50.814;8.530;2023-04-24T12:07:52;10.90;97.60
30174;DHT22;16985;50.814;8.530;2023-04-24T12:10:25;10.80;98.00
30174;DHT22;16985;50.814;8.530;2023-04-24T12:12:52;10.80;98.00
30174;DHT22;16985;50.814;8.530;2023-04-24T12:15:20;10.80;97.90
30174;DHT22;16985;50.814;8.530;2023-04-24T12:18:06;10.70;97.80
30174;DHT22;16985;50.814;8.530;2023-04-24T12:20:32;10.70;97.70
30174;DHT22;16985;50.814;8.530;2023-04-24T12:23:01;10.70;97.90
30174;DHT22;16985;50.814;8.530;2023-04-24T12:25:38;10.70;98.30
30174;DHT22;16985;50.814;8.530;2023-04-24T12:30:31;10.60;98.20
30174;DHT22;16985;50.814;8.530;2023-04-24T12:33:08;10.70;97.80
30174;DHT22;16985;50.814;8.530;2023-04-24T12:35:34;10.60;97.80
30174;DHT22;16985;50.814;8.530;2023-04-24T12:38:09;10.50;97.60
30174;DHT22;16985;50.814;8.530;2023-04-24T12:40:36;10.50;98.40
30174;DHT22;16985;50.814;8.530;2023-04-24T12:43:02;10.50;98.90
30174;DHT22;16985;50.814;8.530;2023-04-24T12:45:38;10.60;99.40
30174;DHT22;16985;50.814;8.530;2023-04-24T12:48:04;10.60;99.50
30174;DHT22;16985;50.814;8.530;2023-04-24T12:50:30;10.70;99.60
30174;DHT22;16985;50.814;8.530;2023-04-24T12:52:56;10.70;99.40
30174;DHT22;16985;50.814;8.530;2023-04-24T12:55:21;10.70;99.50
30174;DHT22;16985;50.814;8.530;2023-04-24T12:57:47;10.70;99.40
30174;DHT22;16985;50.814;8.530;2023-04-24T13:00:13;10.70;99.60
30174;DHT22;16985;50.814;8.530;2023-04-24T13:02:39;10.70;99.30
30174;DHT22;16985;50.814;8.530;2023-04-24T13:05:08;10.70;99.50
30174;DHT22;16985;50.814;8.530;2023-04-24T13:07:34;10.70;99.90
30174;DHT22;16985;50.814;8.530;2023-04-24T13:10:00;10.70;99.90
30174;DHT22;16985;50.814;8.530;2023-04-24T13:12:26;10.70;99.90
30174;DHT22;16985;50.814;8.530;2023-04-24T13:14:52;10.60;99.90
30174;DHT22;16985;50.814;8.530;2023-04-24T13:17:18;10.50;99.60
30174;DHT22;16985;50.814;8.530;2023-04-24T13:19:44;10.40;99.80
30174;DHT22;16985;50.814;8.530;2023-04-24T13:22:11;10.30;99.90
30174;DHT22;16985;50.814;8.530;2023-04-24T13:24:38;10.30;99.90
30174;DHT22;16985;50.814;8.530;2023-04-24T13:27:08;10.20;99.90
30174;DHT22;16985;50.814;8.530;2023-04-24T13:29:35;10.20;99.90
30174;DHT22;16985;50.814;8.530;2023-04-24T13:32:01;10.20;99.90
30174;DHT22;16985;50.814;8.530;2023-04-24T13:34:27;10.10;99.90
30174;DHT22;16985;50.814;8.530;2023-04-24T13:36:54;10.10;99.90
30174;DHT22;16985;50.814;8.530;2023-04-24T13:39:21;10.10;99.90
30174;DHT22;16985;50.814;8.530;2023-04-24T13:41:48;10.10;99.90
30174;DHT22;16985;50.814;8.530;2023-04-24T13:44:15;10.20;99.90
30174;DHT22;16985;50.814;8.530;2023-04-24T13:46:42;10.30;99.90
30174;DHT22;16985;50.814;8.530;2023-04-24T13:49:10;10.30;99.90
30174;DHT22;16985;50.814;8.530;2023-04-24T13:51:36;10.40;99.90
30174;DHT22;16985;50.814;8.530;2023-04-24T13:54:02;10.50;99.90
30174;DHT22;16985;50.814;8.530;2023-04-24T13:56:28;10.50;99.90
30174;DHT22;16985;50.814;8.530;2023-04-24T13:58:54;10.60;99.90
30174;DHT22;16985;50.814;8.530;2023-04-24T14:01:20;10.70;99.90
30174;DHT22;16985;50.814;8.530;2023-04-24T14:03:49;10.90;99.90
30174;DHT22;16985;50.814;8.530;2023-04-24T14:06:19;11.00;99.90
30174;DHT22;16985;50.814;8.530;2023-04-24T14:08:45;11.20;99.90
30174;DHT22;16985;50.814;8.530;2023-04-24T14:11:11;11.30;99.90
30174;DHT22;16985;50.814;8.530;2023-04-24T14:13:38;11.50;99.90
30174;DHT22;16985;50.814;8.530;2023-04-24T14:16:05;11.60;99.90
30174;DHT22;16985;50.814;8.530;2023-04-24T14:18:31;11.70;99.90
30174;DHT22;16985;50.814;8.530;2023-04-24T14:20:57;11.70;99.30
30174;DHT22;16985;50.814;8.530;2023-04-24T14:23:23;11.70;98.40
30174;DHT22;16985;50.814;8.530;2023-04-24T14:25:49;11.70;97.80
30174;DHT22;16985;50.814;8.530;2023-04-24T14:28:18;11.50;98.70
30174;DHT22;16985;50.814;8.530;2023-04-24T14:30:44;11.30;98.40
30174;DHT22;16985;50.814;8.530;2023-04-24T14:33:10;11.20;98.20
30174;DHT22;16985;50.814;8.530;2023-04-24T14:35:46;11.10;99.10
30174;DHT22;16985;50.814;8.530;2023-04-24T14:38:12;11.00;99.50
30174;DHT22;16985;50.814;8.530;2023-04-24T14:40:38;10.90;99.90
30174;DHT22;16985;50.814;8.530;2023-04-24T14:43:05;10.80;99.90
30174;DHT22;16985;50.814;8.530;2023-04-24T14:45:31;10.80;99.90
30174;DHT22;16985;50.814;8.530;2023-04-24T14:47:57;10.90;99.90
30174;DHT22;16985;50.814;8.530;2023-04-24T14:50:23;11.00;99.90
30174;DHT22;16985;50.814;8.530;2023-04-24T14:52:53;11.10;99.90
30174;DHT22;16985;50.814;8.530;2023-04-24T14:55:22;11.30;99.90
30174;DHT22;16985;50.814;8.530;2023-04-24T14:57:48;11.40;99.90
30174;DHT22;16985;50.814;8.530;2023-04-24T15:00:14;11.60;99.90
30174;DHT22;16985;50.814;8.530;2023-04-24T15:02:42;11.70;99.90
30174;DHT22;16985;50.814;8.530;2023-04-24T15:05:10;11.80;99.90
30174;DHT22;16985;50.814;8.530;2023-04-24T15:07:37;11.80;98.30
30174;DHT22;16985;50.814;8.530;2023-04-24T15:10:04;11.80;97.90
30174;DHT22;16985;50.814;8.530;2023-04-24T15:12:30;11.80;97.40
30174;DHT22;16985;50.814;8.530;2023-04-24T15:15:08;11.70;97.80
30174;DHT22;16985;50.814;8.530;2023-04-24T15:17:34;11.60;97.80
30174;DHT22;16985;50.814;8.530;2023-04-24T15:20:00;11.60;97.70
30174;DHT22;16985;50.814;8.530;2023-04-24T15:22:26;11.50;97.40
30174;DHT22;16985;50.814;8.530;2023-04-24T15:24:52;11.40;98.60
30174;DHT22;16985;50.814;8.530;2023-04-24T15:27:18;11.40;99.10
30174;DHT22;16985;50.814;8.530;2023-04-24T15:29:44;11.30;99.10
30174;DHT22;16985;50.814;8.530;2023-04-24T15:32:09;11.20;99.90
30174;DHT22;16985;50.814;8.530;2023-04-24T15:34:35;11.10;99.90
30174;DHT22;16985;50.814;8.530;2023-04-24T15:37:02;11.00;99.90
30174;DHT22;16985;50.814;8.530;2023-04-24T15:39:43;10.90;99.90
30174;DHT22;16985;50.814;8.530;2023-04-24T15:42:10;10.80;99.90
30174;DHT22;16985;50.814;8.530;2023-04-24T15:44:35;10.80;99.90
30174;DHT22;16985;50.814;8.530;2023-04-24T15:47:01;10.70;99.90
30174;DHT22;16985;50.814;8.530;2023-04-24T15:49:27;10.80;99.90
30174;DHT22;16985;50.814;8.530;2023-04-24T15:51:53;10.80;99.90
30174;DHT22;16985;50.814;8.530;2023-04-24T15:54:18;10.80;99.90
30174;DHT22;16985;50.814;8.530;2023-04-24T15:56:44;10.90;99.90
30174;DHT22;16985;50.814;8.530;2023-04-24T15:59:10;10.90;99.90
30174;DHT22;16985;50.814;8.530;2023-04-24T16:01:36;11.00;99.90